Time;durP1;ratioP1;P1;durP2;ratioP2;P2;SDS_P1;SDS_P2;PMS_P1;PMS_P2;Temp;Humidity;BMP_temperature;BMP_pressure;BME280_temperature;BME280_humidity;BME280_pressure;Samples;Min_cycle;Max_cycle;Signal;HPM_P1;HPM_P2
2022/02/16 00:02:14;;;;;;;0.60;0.60;;;;;;;;;;1848389;77;26760;-48
2022/02/16 00:04:41;;;;;;;0.50;0.50;;;;;;;;;;1834513;77;26841;-48
2022/02/16 00:07:08;;;;;;;0.55;0.53;;;;;;;;;;1818760;77;26450;-48
2022/02/16 00:09:35;;;;;;;0.50;0.50;;;;;;;;;;1806718;78;26290;-48
2022/02/16 00:12:03;;;;;;;0.40;0.40;;;;;;;;;;1775396;80;26300;-50
2022/02/16 00:14:31;;;;;;;1.55;0.50;;;;;;;;;;1838895;77;27398;-48
2022/02/16 00:16:59;;;;;;;0.40;0.40;;;;;;;;;;1838625;76;26275;-49
2022/02/16 00:19:26;;;;;;;0.55;0.55;;;;;;;;;;1838967;76;26205;-47
2022/02/16 00:21:53;;;;;;;0.50;0.50;;;;;;;;;;1823644;77;26302;-49
2022/02/16 00:24:20;;;;;;;0.50;0.50;;;;;;;;;;1823640;77;26346;-49
2022/02/16 00:26:48;;;;;;;0.70;0.50;;;;;;;;;;1842173;77;26343;-50
2022/02/16 00:29:15;;;;;;;0.65;0.42;;;;;;;;;;1788902;79;26776;-52
2022/02/16 00:31:43;;;;;;;0.50;0.50;;;;;;;;;;1765437;80;26289;-50
2022/02/16 00:34:10;;;;;;;0.40;0.40;;;;;;;;;;1758222;80;26340;-49
2022/02/16 00:36:38;;;;;;;0.50;0.50;;;;;;;;;;1797509;80;26593;-48
2022/02/16 00:39:06;;;;;;;0.50;0.50;;;;;;;;;;1798047;79;26349;-48
2022/02/16 00:41:33;;;;;;;0.72;0.70;;;;;;;;;;1800037;80;26589;-48
2022/02/16 00:44:01;;;;;;;0.40;0.40;;;;;;;;;;1798589;80;26289;-49
2022/02/16 00:46:28;;;;;;;0.60;0.40;;;;;;;;;;1798550;80;26779;-49
2022/02/16 00:48:55;;;;;;;0.47;0.47;;;;;;;;;;1799142;79;26325;-48
2022/02/16 00:51:23;;;;;;;0.60;0.50;;;;;;;;;;1799183;80;26235;-48
2022/02/16 00:53:50;;;;;;;0.65;0.65;;;;;;;;;;1799805;78;26870;-48
2022/02/16 00:56:17;;;;;;;0.60;0.60;;;;;;;;;;1796592;80;26714;-49
2022/02/16 00:58:44;;;;;;;0.70;0.53;;;;;;;;;;1771616;80;26377;-48
2022/02/16 01:01:12;;;;;;;1.20;0.50;;;;;;;;;;1795716;80;26269;-48
2022/02/16 01:03:39;;;;;;;0.40;0.40;;;;;;;;;;1797178;78;25716;-48
2022/02/16 01:06:06;;;;;;;0.53;0.50;;;;;;;;;;1761716;80;26741;-50
2022/02/16 01:08:33;;;;;;;0.60;0.60;;;;;;;;;;1797224;78;26757;-51
2022/02/16 01:11:01;;;;;;;0.62;0.55;;;;;;;;;;1770057;80;26290;-48
2022/02/16 01:13:28;;;;;;;0.72;0.60;;;;;;;;;;1799320;78;26840;-50
2022/02/16 01:15:55;;;;;;;0.42;0.42;;;;;;;;;;1789906;78;26315;-50
2022/02/16 01:18:23;;;;;;;0.40;0.35;;;;;;;;;;1794705;78;26291;-49
2022/02/16 01:20:50;;;;;;;0.42;0.42;;;;;;;;;;1783676;78;26269;-48
2022/02/16 01:23:17;;;;;;;0.57;0.57;;;;;;;;;;1796247;78;26285;-47
2022/02/16 01:25:44;;;;;;;0.50;0.50;;;;;;;;;;1798424;78;26299;-50
2022/02/16 01:28:12;;;;;;;0.60;0.55;;;;;;;;;;1818914;77;26738;-48
2022/02/16 01:30:39;;;;;;;0.40;0.40;;;;;;;;;;1839002;76;26279;-48
2022/02/16 01:33:06;;;;;;;0.40;0.40;;;;;;;;;;1837863;77;26300;-49
2022/02/16 01:35:34;;;;;;;0.60;0.42;;;;;;;;;;1836064;76;26307;-48
2022/02/16 01:38:03;;;;;;;0.50;0.40;;;;;;;;;;1839833;76;26209;-47
2022/02/16 01:40:30;;;;;;;0.60;0.60;;;;;;;;;;1836194;76;26308;-50
2022/02/16 01:42:58;;;;;;;0.50;0.50;;;;;;;;;;1823755;77;26569;-48
2022/02/16 01:45:26;;;;;;;0.40;0.40;;;;;;;;;;1828111;77;26329;-48
2022/02/16 01:47:54;;;;;;;0.40;0.40;;;;;;;;;;1837041;76;26344;-47
2022/02/16 01:50:22;;;;;;;0.42;0.42;;;;;;;;;;1840680;76;26722;-48
2022/02/16 01:52:50;;;;;;;0.60;0.60;;;;;;;;;;1843549;76;26394;-47
2022/02/16 01:55:17;;;;;;;0.50;0.50;;;;;;;;;;1844115;76;26315;-48
2022/02/16 01:57:45;;;;;;;0.60;0.60;;;;;;;;;;1841142;76;26342;-49
2022/02/16 02:00:12;;;;;;;0.42;0.42;;;;;;;;;;1826940;76;26354;-49
2022/02/16 02:02:42;;;;;;;0.55;0.45;;;;;;;;;;1815001;76;26710;-48
2022/02/16 02:05:11;;;;;;;0.57;0.57;;;;;;;;;;1840389;76;26803;-47
2022/02/16 02:07:40;;;;;;;0.60;0.60;;;;;;;;;;1844777;76;26702;-51
2022/02/16 02:10:08;;;;;;;1.35;0.45;;;;;;;;;;1834127;76;26291;-48
2022/02/16 02:12:46;;;;;;;0.50;0.50;;;;;;;;;;1840632;76;26591;-47
2022/02/16 02:15:14;;;;;;;3.17;0.50;;;;;;;;;;1835263;76;26214;-50
2022/02/16 02:17:42;;;;;;;0.35;0.35;;;;;;;;;;1846834;76;26262;-47
2022/02/16 02:20:25;;;;;;;1.45;0.35;;;;;;;;;;1845110;76;26648;-50
2022/02/16 02:22:53;;;;;;;0.50;0.50;;;;;;;;;;1846532;76;26213;-48
2022/02/16 02:25:20;;;;;;;0.55;0.55;;;;;;;;;;1846706;76;26212;-47
2022/02/16 02:27:48;;;;;;;0.53;0.53;;;;;;;;;;1847114;76;26617;-49
2022/02/16 02:30:16;;;;;;;1.57;1.00;;;;;;;;;;1838086;76;26277;-47
2022/02/16 02:32:45;;;;;;;0.60;0.60;;;;;;;;;;1843316;76;26280;-47
2022/02/16 02:35:14;;;;;;;0.60;0.60;;;;;;;;;;1846954;76;26329;-48
2022/02/16 02:37:42;;;;;;;0.55;0.50;;;;;;;;;;1833927;76;26315;-47
2022/02/16 02:40:10;;;;;;;0.70;0.70;;;;;;;;;;1851274;77;26814;-47
2022/02/16 02:42:38;;;;;;;1.02;0.65;;;;;;;;;;1847772;76;26309;-48
2022/02/16 02:45:06;;;;;;;1.32;0.50;;;;;;;;;;1833715;76;26283;-49
2022/02/16 02:47:35;;;;;;;0.50;0.50;;;;;;;;;;1846493;76;27032;-48
2022/02/16 02:50:02;;;;;;;0.50;0.50;;;;;;;;;;1846492;76;26810;-47
2022/02/16 02:52:31;;;;;;;0.47;0.47;;;;;;;;;;1846107;76;26225;-50
2022/02/16 02:54:59;;;;;;;0.65;0.60;;;;;;;;;;1836890;76;26403;-50
2022/02/16 02:57:26;;;;;;;0.40;0.40;;;;;;;;;;1848711;76;26282;-49
2022/02/16 02:59:53;;;;;;;0.40;0.40;;;;;;;;;;1835339;76;26345;-48
2022/02/16 03:02:23;;;;;;;0.55;0.35;;;;;;;;;;1845038;76;26346;-49
2022/02/16 03:04:50;;;;;;;0.40;0.40;;;;;;;;;;1842118;76;26443;-50
2022/02/16 03:07:18;;;;;;;1.80;0.45;;;;;;;;;;1814768;77;26320;-52
2022/02/16 03:09:45;;;;;;;2.60;0.57;;;;;;;;;;1836832;76;26358;-49
2022/02/16 03:12:12;;;;;;;0.50;0.50;;;;;;;;;;1843420;76;26267;-47
2022/02/16 03:14:40;;;;;;;0.72;0.65;;;;;;;;;;1846609;76;26221;-48
2022/02/16 03:17:07;;;;;;;0.88;0.53;;;;;;;;;;1841759;76;26977;-47
2022/02/16 03:19:34;;;;;;;1.20;0.70;;;;;;;;;;1829329;77;26723;-49
2022/02/16 03:22:01;;;;;;;0.80;0.40;;;;;;;;;;1830045;76;26287;-48
2022/02/16 03:24:29;;;;;;;0.42;0.40;;;;;;;;;;1833006;77;26671;-49
2022/02/16 03:26:56;;;;;;;0.45;0.45;;;;;;;;;;1812483;77;26268;-49
2022/02/16 03:29:23;;;;;;;0.88;0.50;;;;;;;;;;1841235;76;26806;-51
2022/02/16 03:31:50;;;;;;;0.37;0.37;;;;;;;;;;1840113;76;26267;-47
2022/02/16 03:34:18;;;;;;;1.45;0.60;;;;;;;;;;1843840;76;26287;-49
2022/02/16 03:36:45;;;;;;;0.55;0.55;;;;;;;;;;1845503;76;26538;-48
2022/02/16 03:39:12;;;;;;;0.50;0.50;;;;;;;;;;1846715;76;26263;-48
2022/02/16 03:41:40;;;;;;;1.47;0.60;;;;;;;;;;1838453;76;26349;-52
2022/02/16 03:44:07;;;;;;;0.50;0.35;;;;;;;;;;1848526;76;26233;-48
2022/02/16 03:46:34;;;;;;;0.60;0.55;;;;;;;;;;1835236;76;26272;-51
2022/02/16 03:49:01;;;;;;;0.70;0.50;;;;;;;;;;1846959;76;26274;-51
2022/02/16 03:51:29;;;;;;;0.50;0.50;;;;;;;;;;1844986;76;26264;-48
2022/02/16 03:53:56;;;;;;;0.30;0.30;;;;;;;;;;1843503;76;26302;-50
2022/02/16 03:56:23;;;;;;;0.57;0.40;;;;;;;;;;1834291;76;26820;-48
2022/02/16 03:58:51;;;;;;;0.40;0.40;;;;;;;;;;1845921;76;26724;-47
2022/02/16 04:01:18;;;;;;;0.62;0.40;;;;;;;;;;1833572;76;26374;-48
2022/02/16 04:03:45;;;;;;;0.30;0.30;;;;;;;;;;1844788;78;26314;-49
2022/02/16 04:06:12;;;;;;;0.33;0.33;;;;;;;;;;1849502;76;26255;-57
2022/02/16 04:08:40;;;;;;;0.50;0.50;;;;;;;;;;1846220;76;26236;-47
2022/02/16 04:11:07;;;;;;;0.30;0.30;;;;;;;;;;1840887;76;26719;-48
2022/02/16 04:13:35;;;;;;;0.40;0.40;;;;;;;;;;1839836;76;26361;-51
2022/02/16 04:16:02;;;;;;;0.30;0.30;;;;;;;;;;1846057;76;26290;-50
2022/02/16 04:18:29;;;;;;;0.40;0.40;;;;;;;;;;1844160;76;26734;-49
2022/02/16 04:20:57;;;;;;;0.30;0.30;;;;;;;;;;1835911;76;26252;-50
2022/02/16 04:23:24;;;;;;;0.40;0.40;;;;;;;;;;1846338;76;26214;-48
2022/02/16 04:25:51;;;;;;;0.30;0.30;;;;;;;;;;1784005;78;26262;-48
2022/02/16 04:28:21;;;;;;;1.77;0.40;;;;;;;;;;1800327;77;26243;-48
2022/02/16 04:30:48;;;;;;;0.30;0.30;;;;;;;;;;1830331;77;26410;-49
2022/02/16 04:33:15;;;;;;;0.40;0.40;;;;;;;;;;1826284;77;26338;-49
2022/02/16 04:35:43;;;;;;;0.40;0.40;;;;;;;;;;1836699;76;26422;-51
2022/02/16 04:38:10;;;;;;;0.33;0.33;;;;;;;;;;1839618;76;26279;-49
2022/02/16 04:40:38;;;;;;;0.50;0.50;;;;;;;;;;1829416;77;26710;-47
2022/02/16 04:43:05;;;;;;;0.50;0.50;;;;;;;;;;1846254;77;26319;-47
2022/02/16 04:45:34;;;;;;;0.88;0.50;;;;;;;;;;1823505;76;26213;-48
2022/02/16 04:48:02;;;;;;;0.30;0.30;;;;;;;;;;1835412;77;26362;-47
2022/02/16 04:50:29;;;;;;;0.30;0.30;;;;;;;;;;1829334;77;26221;-52
2022/02/16 04:52:57;;;;;;;0.40;0.40;;;;;;;;;;1839325;77;26237;-48
2022/02/16 04:55:25;;;;;;;0.30;0.30;;;;;;;;;;1834858;76;26314;-50
2022/02/16 04:57:53;;;;;;;0.40;0.40;;;;;;;;;;1827322;77;26731;-47
2022/02/16 05:00:25;;;;;;;0.40;0.40;;;;;;;;;;1838701;76;26819;-48
2022/02/16 05:05:16;;;;;;;0.37;0.37;;;;;;;;;;1901630;74;27114;-49
2022/02/16 05:07:44;;;;;;;0.30;0.30;;;;;;;;;;1845774;76;26772;-51
2022/02/16 05:10:11;;;;;;;0.40;0.40;;;;;;;;;;1865630;76;26752;-49
2022/02/16 05:12:40;;;;;;;0.30;0.30;;;;;;;;;;1856372;76;26264;-50
2022/02/16 05:15:09;;;;;;;0.40;0.40;;;;;;;;;;1849035;76;26338;-48
2022/02/16 05:17:36;;;;;;;0.40;0.40;;;;;;;;;;1857003;75;26654;-48
2022/02/16 05:20:04;;;;;;;0.42;0.37;;;;;;;;;;1850964;76;26338;-47
2022/02/16 05:22:32;;;;;;;0.30;0.30;;;;;;;;;;1853142;76;26639;-49
2022/02/16 05:24:59;;;;;;;0.30;0.30;;;;;;;;;;1881685;76;26249;-47
2022/02/16 05:27:26;;;;;;;0.40;0.40;;;;;;;;;;1880651;76;26253;-47
2022/02/16 05:29:53;;;;;;;0.40;0.40;;;;;;;;;;1871605;76;26314;-47
2022/02/16 05:32:21;;;;;;;0.53;0.53;;;;;;;;;;1861801;76;26752;-47
2022/02/16 05:34:48;;;;;;;0.30;0.30;;;;;;;;;;1850183;76;26865;-48
2022/02/16 05:37:15;;;;;;;0.50;0.50;;;;;;;;;;1851642;76;26759;-52
2022/02/16 05:39:43;;;;;;;0.20;0.20;;;;;;;;;;1873486;75;26242;-49
2022/02/16 05:42:10;;;;;;;0.30;0.30;;;;;;;;;;1877886;76;26271;-52
2022/02/16 05:44:37;;;;;;;0.40;0.40;;;;;;;;;;1877683;76;26192;-47
2022/02/16 05:47:05;;;;;;;0.75;0.40;;;;;;;;;;1868614;76;26306;-48
2022/02/16 05:49:32;;;;;;;0.57;0.47;;;;;;;;;;1876822;76;26211;-48
2022/02/16 05:51:59;;;;;;;0.33;0.33;;;;;;;;;;1865537;76;26324;-49
2022/02/16 05:54:27;;;;;;;0.23;0.23;;;;;;;;;;1873225;76;26309;-48
2022/02/16 05:56:54;;;;;;;0.50;0.50;;;;;;;;;;1848278;76;26286;-47
2022/02/16 05:59:21;;;;;;;1.32;0.28;;;;;;;;;;1846499;77;26235;-48
2022/02/16 06:01:48;;;;;;;0.53;0.50;;;;;;;;;;1850668;76;26317;-47
2022/02/16 06:04:16;;;;;;;0.37;0.37;;;;;;;;;;1853156;76;26423;-49
2022/02/16 06:06:44;;;;;;;1.37;0.60;;;;;;;;;;1869278;76;26250;-49
2022/02/16 06:09:12;;;;;;;4.37;0.60;;;;;;;;;;1862944;76;26276;-49
2022/02/16 06:11:40;;;;;;;3.50;0.72;;;;;;;;;;1861426;76;26324;-48
2022/02/16 06:14:07;;;;;;;0.93;0.50;;;;;;;;;;1860903;76;26308;-48
2022/02/16 06:16:35;;;;;;;1.75;0.60;;;;;;;;;;1861057;76;26290;-48
2022/02/16 06:19:02;;;;;;;1.98;0.70;;;;;;;;;;1859215;76;26722;-49
2022/02/16 06:21:30;;;;;;;0.98;0.82;;;;;;;;;;1858251;76;26184;-47
2022/02/16 06:23:57;;;;;;;0.50;0.50;;;;;;;;;;1859550;76;26238;-46
2022/02/16 06:26:24;;;;;;;6.22;0.60;;;;;;;;;;1863908;76;26274;-48
2022/02/16 06:28:51;;;;;;;1.30;0.60;;;;;;;;;;1859821;76;26312;-47
2022/02/16 06:31:19;;;;;;;1.32;0.40;;;;;;;;;;1858238;76;26332;-47
2022/02/16 06:33:46;;;;;;;1.10;0.40;;;;;;;;;;1859729;76;26611;-48
2022/02/16 06:36:13;;;;;;;6.50;0.62;;;;;;;;;;1859389;76;26241;-47
2022/02/16 06:38:41;;;;;;;0.45;0.45;;;;;;;;;;1860888;76;26231;-47
2022/02/16 06:41:08;;;;;;;2.10;0.98;;;;;;;;;;1858515;76;26242;-49
2022/02/16 06:43:36;;;;;;;0.88;0.60;;;;;;;;;;1856337;77;26327;-47
2022/02/16 06:46:03;;;;;;;1.60;0.60;;;;;;;;;;1878049;76;26304;-48
2022/02/16 06:48:30;;;;;;;0.57;0.50;;;;;;;;;;1858665;76;26207;-49
2022/02/16 06:50:57;;;;;;;1.02;0.60;;;;;;;;;;1858381;76;26242;-47
2022/02/16 06:53:25;;;;;;;0.50;0.50;;;;;;;;;;1858728;76;26227;-47
2022/02/16 06:55:52;;;;;;;1.07;0.80;;;;;;;;;;1858616;76;26269;-47
2022/02/16 06:58:19;;;;;;;0.47;0.47;;;;;;;;;;1855630;76;26322;-48
2022/02/16 07:00:46;;;;;;;0.40;0.40;;;;;;;;;;1862472;76;26264;-47
2022/02/16 07:03:14;;;;;;;0.53;0.53;;;;;;;;;;1857332;77;26313;-46
2022/02/16 07:05:41;;;;;;;0.57;0.45;;;;;;;;;;1849646;76;26298;-48
2022/02/16 07:08:09;;;;;;;0.50;0.50;;;;;;;;;;1829660;77;26289;-48
2022/02/16 07:10:36;;;;;;;0.62;0.50;;;;;;;;;;1831203;77;26799;-48
2022/02/16 07:13:03;;;;;;;1.82;0.60;;;;;;;;;;1848195;76;26250;-49
2022/02/16 07:15:31;;;;;;;2.17;0.50;;;;;;;;;;1848273;77;26328;-47
2022/02/16 07:18:01;;;;;;;0.50;0.50;;;;;;;;;;1848383;77;26778;-48
2022/02/16 07:20:29;;;;;;;0.50;0.50;;;;;;;;;;1838212;76;26292;-49
2022/02/16 07:22:57;;;;;;;3.08;0.50;;;;;;;;;;1838105;76;26905;-54
2022/02/16 07:25:25;;;;;;;0.40;0.40;;;;;;;;;;1848300;76;25928;-51
2022/02/16 07:27:52;;;;;;;3.65;0.70;;;;;;;;;;1842603;77;26278;-49
2022/02/16 07:30:19;;;;;;;0.47;0.47;;;;;;;;;;1848021;77;26258;-47
2022/02/16 07:32:47;;;;;;;2.05;0.50;;;;;;;;;;1856834;76;26246;-47
2022/02/16 07:35:14;;;;;;;0.70;0.70;;;;;;;;;;1867511;76;26638;-49
2022/02/16 07:37:42;;;;;;;0.60;0.60;;;;;;;;;;1844267;77;26186;-47
2022/02/16 07:40:10;;;;;;;0.60;0.60;;;;;;;;;;1845565;77;26320;-48
2022/02/16 07:42:37;;;;;;;2.83;0.70;;;;;;;;;;1827364;77;25656;-48
2022/02/16 07:45:06;;;;;;;0.95;0.60;;;;;;;;;;1846527;76;26710;-49
2022/02/16 07:47:34;;;;;;;1.65;0.60;;;;;;;;;;1849209;77;26291;-50
2022/02/16 07:50:01;;;;;;;0.75;0.60;;;;;;;;;;1848668;77;26364;-49
2022/02/16 07:52:31;;;;;;;1.35;0.90;;;;;;;;;;1847145;77;26254;-48
2022/02/16 07:54:59;;;;;;;0.60;0.60;;;;;;;;;;1845286;77;26252;-51
2022/02/16 07:57:26;;;;;;;3.27;0.93;;;;;;;;;;1846972;77;26328;-56
2022/02/16 07:59:55;;;;;;;1.60;0.50;;;;;;;;;;1838483;77;26257;-58
2022/02/16 08:02:22;;;;;;;2.47;0.57;;;;;;;;;;1848810;77;26313;-51
2022/02/16 08:04:50;;;;;;;2.33;0.80;;;;;;;;;;1849834;77;26363;-56
2022/02/16 08:07:17;;;;;;;0.70;0.70;;;;;;;;;;1827727;77;26710;-54
2022/02/16 08:09:44;;;;;;;1.47;0.50;;;;;;;;;;1851782;76;26654;-56
2022/02/16 08:12:12;;;;;;;1.35;0.60;;;;;;;;;;1858430;77;27215;-54
2022/02/16 08:14:40;;;;;;;0.75;0.62;;;;;;;;;;1835587;77;26281;-56
2022/02/16 08:17:08;;;;;;;1.37;0.60;;;;;;;;;;1856033;77;26336;-52
2022/02/16 08:19:36;;;;;;;2.67;0.60;;;;;;;;;;1839291;77;26377;-56
2022/02/16 08:22:04;;;;;;;1.85;0.65;;;;;;;;;;1858135;76;26219;-49
2022/02/16 08:24:32;;;;;;;0.47;0.42;;;;;;;;;;1858566;77;26331;-55
2022/02/16 08:27:00;;;;;;;2.87;0.62;;;;;;;;;;1858391;77;26243;-49
2022/02/16 08:29:27;;;;;;;0.50;0.50;;;;;;;;;;1857604;77;26328;-50
2022/02/16 08:31:55;;;;;;;0.80;0.60;;;;;;;;;;1851562;77;28664;-50
2022/02/16 08:34:22;;;;;;;0.90;0.60;;;;;;;;;;1849556;76;27156;-53
2022/02/16 08:36:55;;;;;;;0.50;0.50;;;;;;;;;;1857762;77;26294;-52
2022/02/16 08:39:18;;;;;;;0.55;0.45;;;;;;;;;;1857497;76;26312;-53
2022/02/16 08:41:46;;;;;;;0.95;0.60;;;;;;;;;;1858073;76;26320;-51
2022/02/16 08:44:13;;;;;;;4.03;0.50;;;;;;;;;;1857978;77;26266;-47
2022/02/16 08:46:40;;;;;;;0.50;0.50;;;;;;;;;;1850650;76;26253;-53
2022/02/16 08:49:08;;;;;;;1.22;0.50;;;;;;;;;;1855463;77;26218;-52
2022/02/16 08:51:35;;;;;;;0.62;0.50;;;;;;;;;;1842109;77;26282;-52
2022/02/16 08:54:02;;;;;;;1.65;0.40;;;;;;;;;;1852215;77;26336;-50
2022/02/16 08:56:31;;;;;;;0.40;0.40;;;;;;;;;;1858635;76;26302;-46
2022/02/16 08:59:00;;;;;;;1.57;0.40;;;;;;;;;;1856630;76;26310;-47
2022/02/16 09:01:32;;;;;;;0.50;0.50;;;;;;;;;;1859873;76;26258;-49
2022/02/16 09:03:57;;;;;;;0.60;0.60;;;;;;;;;;1860032;76;26278;-46
2022/02/16 09:06:24;;;;;;;0.40;0.40;;;;;;;;;;1842626;76;26329;-49
2022/02/16 09:08:52;;;;;;;1.75;0.72;;;;;;;;;;1819392;78;26674;-50
2022/02/16 09:11:19;;;;;;;0.40;0.40;;;;;;;;;;1801733;79;26788;-48
2022/02/16 09:13:47;;;;;;;1.30;0.40;;;;;;;;;;1801909;79;26262;-50
2022/02/16 09:16:14;;;;;;;2.50;0.50;;;;;;;;;;1819453;78;26751;-50
2022/02/16 09:18:41;;;;;;;2.27;0.50;;;;;;;;;;1831792;78;26812;-47
2022/02/16 09:21:09;;;;;;;0.30;0.30;;;;;;;;;;1836555;76;26231;-46
2022/02/16 09:23:37;;;;;;;0.40;0.40;;;;;;;;;;1829727;78;26204;-56
2022/02/16 09:26:05;;;;;;;0.80;0.57;;;;;;;;;;1827739;77;26340;-54
2022/02/16 09:28:33;;;;;;;0.60;0.60;;;;;;;;;;1832154;77;26742;-56
2022/02/16 09:31:01;;;;;;;0.30;0.30;;;;;;;;;;1831856;77;26287;-47
2022/02/16 09:33:29;;;;;;;0.35;0.35;;;;;;;;;;1831895;77;26684;-46
2022/02/16 09:35:57;;;;;;;1.75;0.40;;;;;;;;;;1832733;76;26329;-54
2022/02/16 09:38:24;;;;;;;3.45;0.23;;;;;;;;;;1829047;77;27415;-49
2022/02/16 09:40:52;;;;;;;3.42;0.40;;;;;;;;;;1831308;78;26215;-52
2022/02/16 09:43:23;;;;;;;0.40;0.40;;;;;;;;;;1830309;78;26897;-46
2022/02/16 09:45:57;;;;;;;1.67;0.47;;;;;;;;;;1832234;77;26299;-43
2022/02/16 09:48:21;;;;;;;0.35;0.35;;;;;;;;;;1829688;78;26227;-44
2022/02/16 09:50:48;;;;;;;0.30;0.30;;;;;;;;;;1830508;78;26364;-49
2022/02/16 09:53:15;;;;;;;0.30;0.30;;;;;;;;;;1832592;78;26289;-55
2022/02/16 09:55:43;;;;;;;0.55;0.30;;;;;;;;;;1831954;77;26303;-51
2022/02/16 09:58:11;;;;;;;0.40;0.40;;;;;;;;;;1829931;77;26261;-48
2022/02/16 10:00:38;;;;;;;0.47;0.35;;;;;;;;;;1831388;77;26799;-48
2022/02/16 10:03:13;;;;;;;0.40;0.40;;;;;;;;;;1830377;77;26341;-43
2022/02/16 10:05:40;;;;;;;0.28;0.28;;;;;;;;;;1842600;76;26606;-58
2022/02/16 10:08:08;;;;;;;2.65;0.50;;;;;;;;;;1834844;77;26265;-52
2022/02/16 10:10:35;;;;;;;0.42;0.30;;;;;;;;;;1831398;77;26301;-61
2022/02/16 10:13:04;;;;;;;2.98;0.30;;;;;;;;;;1842953;77;26262;-60
2022/02/16 10:15:40;;;;;;;0.30;0.30;;;;;;;;;;1848035;77;26576;-55
2022/02/16 10:18:14;;;;;;;1.90;0.30;;;;;;;;;;1833123;77;26269;-45
2022/02/16 10:20:42;;;;;;;0.30;0.30;;;;;;;;;;1849550;77;26762;-49
2022/02/16 10:23:10;;;;;;;0.95;0.33;;;;;;;;;;1842150;77;26243;-45
2022/02/16 10:25:38;;;;;;;0.40;0.25;;;;;;;;;;1832837;77;26359;-55
2022/02/16 10:28:13;;;;;;;1.80;0.40;;;;;;;;;;1822726;77;26253;-52
2022/02/16 10:31:00;;;;;;;0.60;0.30;;;;;;;;;;1849686;77;26549;-52
2022/02/16 10:33:29;;;;;;;0.30;0.30;;;;;;;;;;1831332;77;25806;-46
2022/02/16 10:36:11;;;;;;;0.25;0.25;;;;;;;;;;1812492;79;26829;-48
2022/02/16 10:38:58;;;;;;;0.35;0.35;;;;;;;;;;1840736;77;26336;-47
2022/02/16 10:41:31;;;;;;;2.08;0.40;;;;;;;;;;1849480;77;26333;-53
2022/02/16 10:43:56;;;;;;;0.50;0.50;;;;;;;;;;1847318;77;26710;-53
2022/02/16 10:46:30;;;;;;;1.02;0.28;;;;;;;;;;1849471;77;26283;-51
2022/02/16 10:49:14;;;;;;;0.50;0.50;;;;;;;;;;1833144;77;26258;-57
2022/02/16 10:51:43;;;;;;;0.30;0.30;;;;;;;;;;1815220;77;26824;-52
2022/02/16 10:54:12;;;;;;;0.88;0.40;;;;;;;;;;1833798;77;26243;-47
2022/02/16 10:56:41;;;;;;;1.20;0.40;;;;;;;;;;1848496;77;26702;-55
2022/02/16 10:59:09;;;;;;;0.30;0.30;;;;;;;;;;1819030;79;26250;-47
2022/02/16 11:01:38;;;;;;;0.40;0.40;;;;;;;;;;1842278;77;26719;-51
2022/02/16 11:04:06;;;;;;;0.20;0.20;;;;;;;;;;1845105;77;26309;-53
2022/02/16 11:06:37;;;;;;;0.30;0.30;;;;;;;;;;1852312;76;26670;-49
2022/02/16 11:09:05;;;;;;;0.85;0.40;;;;;;;;;;1856690;76;26253;-48
2022/02/16 11:11:33;;;;;;;0.40;0.40;;;;;;;;;;1855318;77;26250;-50
2022/02/16 11:14:03;;;;;;;2.20;0.50;;;;;;;;;;1857492;77;26340;-46
2022/02/16 11:16:31;;;;;;;0.40;0.40;;;;;;;;;;1855680;77;26226;-47
2022/02/16 11:19:00;;;;;;;0.40;0.33;;;;;;;;;;1856955;76;26238;-46
2022/02/16 11:21:30;;;;;;;0.55;0.55;;;;;;;;;;1856901;77;26338;-46
2022/02/16 11:23:59;;;;;;;0.60;0.60;;;;;;;;;;1850534;77;26874;-46
2022/02/16 11:26:48;;;;;;;0.35;0.30;;;;;;;;;;1852899;77;26789;-48
2022/02/16 11:29:29;;;;;;;0.40;0.40;;;;;;;;;;1845186;77;26332;-46
2022/02/16 11:32:10;;;;;;;0.62;0.50;;;;;;;;;;1842987;77;26281;-46
2022/02/16 11:34:37;;;;;;;0.40;0.40;;;;;;;;;;1857464;77;26204;-47
2022/02/16 11:37:09;;;;;;;0.40;0.40;;;;;;;;;;1857527;77;26328;-49
2022/02/16 11:39:50;;;;;;;4.08;0.68;;;;;;;;;;1856368;76;26294;-56
2022/02/16 11:42:21;;;;;;;1.62;0.60;;;;;;;;;;1850228;76;26336;-57
2022/02/16 11:44:53;;;;;;;2.17;0.70;;;;;;;;;;1850002;77;26304;-56
2022/02/16 11:47:37;;;;;;;3.30;0.60;;;;;;;;;;1856759;77;26309;-56
2022/02/16 11:50:12;;;;;;;0.50;0.50;;;;;;;;;;1857993;76;26723;-53
2022/02/16 11:52:41;;;;;;;0.98;0.60;;;;;;;;;;1843075;76;28206;-60
2022/02/16 11:55:10;;;;;;;1.75;0.57;;;;;;;;;;1857103;76;26733;-58
2022/02/16 11:57:43;;;;;;;0.60;0.60;;;;;;;;;;1850252;76;26265;-59
2022/02/16 12:00:13;;;;;;;0.45;0.45;;;;;;;;;;1855435;76;26333;-64
2022/02/16 12:03:05;;;;;;;0.60;0.60;;;;;;;;;;1857145;76;26215;-57
2022/02/16 12:05:55;;;;;;;0.98;0.50;;;;;;;;;;1858639;76;26273;-54
2022/02/16 12:08:30;;;;;;;0.53;0.53;;;;;;;;;;1835252;76;26382;-56
2022/02/16 12:10:59;;;;;;;4.03;0.60;;;;;;;;;;1840322;76;26918;-61
2022/02/16 12:13:28;;;;;;;2.15;0.40;;;;;;;;;;1823993;77;26400;-61
2022/02/16 12:15:56;;;;;;;0.70;0.50;;;;;;;;;;1822400;77;26295;-58
2022/02/16 12:18:25;;;;;;;1.55;0.50;;;;;;;;;;1832572;77;26742;-59
2022/02/16 12:20:53;;;;;;;2.83;0.40;;;;;;;;;;1832028;77;26852;-57
2022/02/16 12:23:20;;;;;;;0.40;0.40;;;;;;;;;;1838357;77;26263;-55
2022/02/16 12:25:49;;;;;;;0.57;0.42;;;;;;;;;;1832307;78;26683;-60
2022/02/16 12:28:16;;;;;;;1.60;0.40;;;;;;;;;;1779145;79;26813;-60
2022/02/16 12:30:43;;;;;;;0.53;0.40;;;;;;;;;;1792119;80;26215;-62
2022/02/16 12:33:21;;;;;;;0.60;0.50;;;;;;;;;;1770049;80;26318;-58
2022/02/16 12:35:49;;;;;;;0.57;0.57;;;;;;;;;;1793932;80;26255;-62
2022/02/16 12:38:23;;;;;;;0.53;0.53;;;;;;;;;;1787561;80;28306;-56
2022/02/16 12:40:51;;;;;;;1.02;0.60;;;;;;;;;;1792675;80;26287;-59
2022/02/16 12:43:19;;;;;;;0.53;0.53;;;;;;;;;;1780017;80;26373;-60
2022/02/16 12:45:48;;;;;;;0.60;0.60;;;;;;;;;;1788984;78;27054;-61
2022/02/16 12:48:16;;;;;;;1.75;0.57;;;;;;;;;;1783777;80;26846;-56
2022/02/16 12:50:44;;;;;;;1.05;0.60;;;;;;;;;;1797732;77;26359;-62
2022/02/16 12:53:13;;;;;;;0.50;0.50;;;;;;;;;;1768841;80;26356;-57
2022/02/16 12:55:41;;;;;;;0.95;0.60;;;;;;;;;;1781714;79;26354;-58
2022/02/16 12:58:08;;;;;;;0.50;0.50;;;;;;;;;;1779992;80;26287;-54
2022/02/16 13:00:48;;;;;;;0.98;0.53;;;;;;;;;;1786190;78;28340;-60
2022/02/16 13:03:17;;;;;;;0.60;0.60;;;;;;;;;;1794668;80;26736;-61
2022/02/16 13:05:46;;;;;;;0.82;0.40;;;;;;;;;;1801263;78;26760;-59
2022/02/16 13:08:14;;;;;;;0.40;0.40;;;;;;;;;;1799523;78;26723;-57
2022/02/16 13:10:43;;;;;;;0.88;0.50;;;;;;;;;;1764263;81;26947;-60
2022/02/16 13:13:20;;;;;;;0.40;0.40;;;;;;;;;;1772505;81;26287;-57
2022/02/16 13:15:49;;;;;;;0.50;0.50;;;;;;;;;;1777213;81;26294;-54
2022/02/16 13:18:18;;;;;;;2.02;0.40;;;;;;;;;;1771042;81;26376;-53
2022/02/16 13:20:45;;;;;;;0.40;0.40;;;;;;;;;;1777950;81;26346;-56
2022/02/16 13:23:17;;;;;;;0.30;0.30;;;;;;;;;;1775692;80;26338;-55
2022/02/16 13:25:48;;;;;;;0.40;0.40;;;;;;;;;;1760187;80;29075;-61
2022/02/16 13:28:17;;;;;;;0.30;0.30;;;;;;;;;;1762197;81;26306;-58
2022/02/16 13:30:45;;;;;;;0.70;0.40;;;;;;;;;;1777338;80;26244;-56
2022/02/16 13:33:15;;;;;;;0.40;0.40;;;;;;;;;;1774314;81;26298;-59
2022/02/16 13:35:43;;;;;;;0.55;0.50;;;;;;;;;;1777364;81;26888;-59
2022/02/16 13:38:12;;;;;;;0.20;0.20;;;;;;;;;;1777774;81;26930;-61
2022/02/16 13:40:47;;;;;;;0.40;0.30;;;;;;;;;;1764007;81;26302;-63
2022/02/16 13:43:15;;;;;;;0.40;0.40;;;;;;;;;;1763543;80;26310;-58
2022/02/16 13:45:43;;;;;;;0.50;0.50;;;;;;;;;;1762489;81;27405;-59
2022/02/16 13:48:11;;;;;;;0.40;0.40;;;;;;;;;;1777983;81;26366;-63
2022/02/16 13:50:40;;;;;;;0.40;0.40;;;;;;;;;;1778407;80;26256;-58
2022/02/16 13:53:08;;;;;;;1.25;0.40;;;;;;;;;;1764451;81;28310;-63
2022/02/16 13:55:43;;;;;;;0.50;0.50;;;;;;;;;;1777940;80;26338;-48
2022/02/16 13:58:11;;;;;;;0.40;0.40;;;;;;;;;;1763214;81;26279;-46
2022/02/16 14:00:38;;;;;;;1.15;0.28;;;;;;;;;;1777833;80;26314;-48
2022/02/16 14:03:07;;;;;;;1.35;0.47;;;;;;;;;;1777741;81;26355;-48
2022/02/16 14:05:35;;;;;;;0.30;0.30;;;;;;;;;;1769942;80;26303;-46
2022/02/16 14:08:05;;;;;;;1.92;0.40;;;;;;;;;;1782907;79;26389;-48
2022/02/16 14:10:34;;;;;;;1.40;0.40;;;;;;;;;;1798027;80;26380;-61
2022/02/16 14:13:02;;;;;;;0.30;0.30;;;;;;;;;;1793503;80;26334;-57
2022/02/16 14:15:29;;;;;;;2.08;0.37;;;;;;;;;;1793212;80;26286;-56
2022/02/16 14:17:56;;;;;;;0.40;0.40;;;;;;;;;;1797411;80;26232;-59
2022/02/16 14:20:24;;;;;;;0.30;0.30;;;;;;;;;;1794937;78;26314;-56
2022/02/16 14:22:51;;;;;;;0.28;0.28;;;;;;;;;;1797290;78;26805;-52
2022/02/16 14:25:19;;;;;;;0.30;0.30;;;;;;;;;;1797503;80;26247;-55
2022/02/16 14:27:49;;;;;;;0.42;0.42;;;;;;;;;;1797974;78;26299;-56
2022/02/16 14:30:17;;;;;;;0.20;0.20;;;;;;;;;;1791638;78;26305;-57
2022/02/16 14:32:45;;;;;;;0.37;0.37;;;;;;;;;;1797034;80;26731;-58
2022/02/16 14:35:13;;;;;;;0.40;0.40;;;;;;;;;;1797848;80;26396;-58
2022/02/16 14:37:40;;;;;;;0.60;0.60;;;;;;;;;;1797041;80;26277;-59
2022/02/16 14:40:11;;;;;;;0.33;0.33;;;;;;;;;;1794999;80;26334;-62
2022/02/16 14:42:39;;;;;;;0.30;0.30;;;;;;;;;;1795044;80;26243;-52
2022/02/16 14:45:09;;;;;;;0.20;0.20;;;;;;;;;;1798070;80;26282;-57
2022/02/16 14:47:40;;;;;;;0.55;0.30;;;;;;;;;;1794180;78;26368;-56
2022/02/16 14:50:09;;;;;;;0.28;0.28;;;;;;;;;;1797555;80;26779;-60
2022/02/16 14:52:37;;;;;;;0.30;0.30;;;;;;;;;;1798178;80;26314;-57
2022/02/16 14:55:05;;;;;;;0.28;0.28;;;;;;;;;;1797154;80;26283;-59